Flight Track Log - Related Links

Times and Time Zones

All times are in EDT time to prevent confusion due to time zone crossing. See the N402B flight status page for this flight to view local times or setup timezone preferences in your user account.

Time Position Orientation Groundspeed Altitude Reporting Facility
EDT Latitude Longitude Course Direction KTS MPH feet Rate Location/Type
Mon 09:40:07 PM 31.4947 -83.5358 344° North 126 145 2,100  Level Jacksonville Center
Mon 09:40:40 PM 31.5114 -83.5506 323° Northwest 137 158 2,600 774 Climbing Jacksonville Center
Mon 09:41:40 PM 31.5467 -83.5703 335° Northwest 137 158 3,300 750 Climbing Jacksonville Center
Mon 09:42:40 PM 31.5822 -83.5925 332° Northwest 137 158 4,100 700 Climbing Jacksonville Center
Mon 09:43:40 PM 31.6175 -83.6219 325° Northwest 142 163 4,700 600 Climbing Jacksonville Center
Mon 09:44:40 PM 31.6547 -83.6517 326° Northwest 147 169 5,300 600 Climbing Jacksonville Center
Mon 09:45:00 PM 31.8643 -83.6213 344° North  Level FlightAware Approximate
Mon 09:45:40 PM 31.6903 -83.6789 327° Northwest 147 169 5,900  Level Jacksonville Center
Mon 09:46:40 PM 31.7275 -83.7058 328° Northwest 147 169 6,400 550 Climbing Jacksonville Center
Mon 09:47:40 PM 31.7692 -83.7283 335° Northwest 153 176 7,000 550 Climbing Jacksonville Center
Mon 09:48:40 PM 31.8108 -83.7483 338° Northwest 158 182 7,500 550 Climbing Jacksonville Center
Mon 09:49:40 PM 31.8544 -83.7683 339° North 158 182 8,100 146 Climbing Jacksonville Center
Mon 09:52:05 PM 31.9833 -83.8000 348° North 182 209 8,000 -30 Descending Atlanta TRACON
Mon 09:52:59 PM 32.0167 -83.8000 360° North 181 208 8,000  Level Atlanta TRACON
Mon 09:53:59 PM 32.0667 -83.8167 344° North 175 201 8,000 50 Level Atlanta TRACON
Mon 09:54:59 PM 32.1167 -83.8333 344° North 179 206 8,100 48 Climbing Atlanta TRACON
Mon 09:56:05 PM 32.1667 -83.8167 16° North 186 214 8,100  Level Atlanta TRACON
Mon 09:57:05 PM 32.2167 -83.8167 360° North 187 215 8,100  Level Atlanta TRACON
Mon 09:57:59 PM 32.2667 -83.8167 360° North 184 212 8,100  Level Atlanta TRACON
Mon 09:58:59 PM 32.3167 -83.8167 360° North 187 215 8,100  Level Atlanta TRACON
Mon 09:59:59 PM 32.3667 -83.8167 360° North 185 213 8,100  Level Atlanta TRACON
Mon 10:01:05 PM 32.4333 -83.8000 12° North 180 207 8,100  Level Atlanta TRACON
Mon 10:02:11 PM 32.4833 -83.8000 360° North 181 208 8,100  Level Atlanta TRACON
Mon 10:03:11 PM 32.5333 -83.8000 360° North 180 207 8,100  Level Atlanta TRACON
Mon 10:04:11 PM 32.5833 -83.8000 360° North 180 207 8,100  Level Atlanta TRACON
Mon 10:05:11 PM 32.6333 -83.8000 360° North 185 213 8,100  Level Atlanta TRACON
Mon 10:06:12 PM 32.6833 -83.8000 360° North 190 219 8,100  Level Atlanta TRACON
Mon 10:07:06 PM 32.7333 -83.8000 360° North 190 219 8,100  Level Atlanta TRACON
Mon 10:08:18 PM 32.8000 -83.8000 360° North 190 219 8,100  Level Atlanta TRACON
Mon 10:09:18 PM 32.8500 -83.8000 360° North 187 215 8,100  Level Atlanta TRACON
Mon 10:10:18 PM 32.9000 -83.8000 360° North 187 215 8,100 -158 Level Atlanta TRACON
Mon 10:11:12 PM 32.9500 -83.8000 360° North 193 222 7,800 -278 Descending Atlanta TRACON
Mon 10:12:06 PM 33.0000 -83.7833 16° North 198 228 7,600 -263 Descending Atlanta TRACON
Mon 10:13:06 PM 33.0500 -83.7833 360° North 197 227 7,300 -300 Descending Atlanta TRACON
Mon 10:14:06 PM 33.1167 -83.7833 360° North 202 232 7,000 -300 Descending Atlanta TRACON
Mon 10:15:06 PM 33.1667 -83.7833 360° North 202 232 6,700 -300 Descending Atlanta TRACON
Mon 10:16:06 PM 33.2167 -83.7833 360° North 199 229 6,400 -238 Descending Atlanta TRACON
Mon 10:17:12 PM 33.2833 -83.7833 360° North 199 229 6,200 -190 Descending Atlanta TRACON
Mon 10:18:12 PM 33.3333 -83.7833 360° North 194 223 6,000 -158 Descending Atlanta TRACON
Mon 10:19:06 PM 33.3833 -83.7500 29° Northeast 192 221 5,900 -316 Descending Atlanta TRACON
Mon 10:20:06 PM 33.4167 -83.7167 40° Northeast 200 230 5,400 -526 Descending Atlanta TRACON
Mon 10:21:00 PM 33.4667 -83.6833 29° Northeast 205 236 4,900 -526 Descending Atlanta TRACON
Mon 10:22:00 PM 33.5167 -83.6667 16° North 198 228 4,400 -368 Descending Atlanta TRACON
Mon 10:22:54 PM 33.5667 -83.6667 360° North 197 227 4,200 -150 Descending Atlanta TRACON
Mon 10:24:00 PM 33.6167 -83.6833 344° North 178 205 4,100 -48 Descending Atlanta TRACON
Mon 10:25:00 PM 33.6667 -83.7000 344° North 175 201 4,100  Level Atlanta TRACON
Mon 10:26:00 PM 33.7000 -83.7333 320° Northwest 170 196 4,100  Level Atlanta TRACON
Mon 10:27:00 PM 33.7500 -83.7500 345° North 168 193 4,100 -50 Level Atlanta TRACON
Mon 10:28:00 PM 33.8000 -83.7833 331° Northwest 174 200 4,000 -48 Descending Atlanta TRACON
Mon 10:29:06 PM 33.8333 -83.8167 320° Northwest 178 205 4,000  Level Atlanta TRACON
Mon 10:30:00 PM 33.8833 -83.8333 345° North 168 193 4,000  Level Atlanta TRACON
Mon 10:31:00 PM 33.9167 -83.8667 320° Northwest 173 199 4,000  Level Atlanta TRACON
Mon 10:32:00 PM 33.9167 -83.9167 270° West 159 183 4,000 -200 Level Atlanta TRACON
Mon 10:33:00 PM 33.9333 -83.9667 292° West 176 203 3,600 -476 Descending Atlanta TRACON
Mon 10:34:06 PM 33.9333 -84.0333 270° West 174 200 3,000 -286 Descending Atlanta TRACON
Mon 10:35:06 PM 33.9333 -84.0833 270° West 157 181 3,000 -95 Level Atlanta TRACON
Mon 10:36:12 PM 33.9167 -84.1333 248° West 158 182 2,800 -211 Descending Atlanta TRACON
Mon 10:37:00 PM 33.9333 -84.1833 292° West 149 171 2,600 -167 Descending Atlanta TRACON
Mon 10:38:00 PM 33.9333 -84.2333 270° West 124 143 2,500 -200 Descending Atlanta TRACON
Mon 10:39:00 PM 33.9333 -84.2667 270° West 119 137 2,200 -350 Descending Atlanta TRACON
Mon 10:40:00 PM 33.9167 -84.2833 220° Southwest 112 129 1,800 -400 Descending Atlanta TRACON
Mon 10:41:00 PM 33.8756 -84.3020 268° West  Level Estimated
Mon 10:48:00 PM 33.8756 -84.3020 268° West  Level Estimated
Mon 10:49:00 PM 33.8756 -84.3020 268° West  Level Estimated

Login

Don't have an account? Register now (free) for customized features, flight alerts, and more!